Terminal Aerodrome Forecast
Issued by NWS

Home | Current Version | Previous Version | Text Only | Print | Product List | Glossary On
Versions: 1 2 3 4 5 6 7 8 9 10 11 12 13 14 15 16 17 18
000
FTUS43 KILX 231100
TAFDEC
TAF
KDEC 231137Z 2312/2412 08004KT 3SM BR SCT100
     FM231500 09005KT P6SM VCSH SCT035 BKN120
     FM232000 12006KT P6SM VCTS SCT040CB BKN250
     FM240100 09005KT P6SM BKN250
     FM240900 10003KT 4SM BR SCT250=

USA.gov is the U.S. government's official web portal to all federal, state and local government web resources and services.